sensor_id;sensor_type;location;lat;lon;timestamp;P1;durP1;ratioP1;P2;durP2;ratioP2
25127;SDS011;13107;51.304;6.866;2022-12-29T00:04:01;1.90;;;0.70;;
25127;SDS011;13107;51.304;6.866;2022-12-29T00:08:04;0.95;;;0.50;;
25127;SDS011;13107;51.304;6.866;2022-12-29T00:12:06;0.62;;;0.40;;
25127;SDS011;13107;51.304;6.866;2022-12-29T00:16:07;0.85;;;0.40;;
25127;SDS011;13107;51.304;6.866;2022-12-29T00:20:09;0.65;;;0.50;;
25127;SDS011;13107;51.304;6.866;2022-12-29T00:24:29;0.95;;;0.60;;
25127;SDS011;13107;51.304;6.866;2022-12-29T00:28:37;0.60;;;0.50;;
25127;SDS011;13107;51.304;6.866;2022-12-29T00:32:58;1.62;;;0.70;;
25127;SDS011;13107;51.304;6.866;2022-12-29T00:37:18;0.82;;;0.70;;
25127;SDS011;13107;51.304;6.866;2022-12-29T00:41:40;0.95;;;0.62;;
25127;SDS011;13107;51.304;6.866;2022-12-29T00:46:00;1.58;;;0.77;;
25127;SDS011;13107;51.304;6.866;2022-12-29T00:50:02;0.75;;;0.50;;
25127;SDS011;13107;51.304;6.866;2022-12-29T00:54:04;1.12;;;0.60;;
25127;SDS011;13107;51.304;6.866;2022-12-29T00:58:07;1.35;;;0.62;;
25127;SDS011;13107;51.304;6.866;2022-12-29T01:02:09;0.90;;;0.50;;
25127;SDS011;13107;51.304;6.866;2022-12-29T01:06:12;0.68;;;0.40;;
25127;SDS011;13107;51.304;6.866;2022-12-29T01:10:15;1.90;;;0.40;;
25127;SDS011;13107;51.304;6.866;2022-12-29T01:14:18;1.12;;;0.40;;
25127;SDS011;13107;51.304;6.866;2022-12-29T01:18:21;0.70;;;0.40;;
25127;SDS011;13107;51.304;6.866;2022-12-29T01:22:24;0.65;;;0.20;;
25127;SDS011;13107;51.304;6.866;2022-12-29T01:26:25;1.45;;;0.30;;
25127;SDS011;13107;51.304;6.866;2022-12-29T01:30:27;0.90;;;0.20;;
25127;SDS011;13107;51.304;6.866;2022-12-29T01:34:29;0.75;;;0.20;;
25127;SDS011;13107;51.304;6.866;2022-12-29T01:38:31;0.35;;;0.20;;
25127;SDS011;13107;51.304;6.866;2022-12-29T01:42:33;0.32;;;0.13;;
25127;SDS011;13107;51.304;6.866;2022-12-29T01:46:39;0.22;;;0.13;;
25127;SDS011;13107;51.304;6.866;2022-12-29T01:50:48;0.98;;;0.25;;
25127;SDS011;13107;51.304;6.866;2022-12-29T01:54:52;0.60;;;0.28;;
25127;SDS011;13107;51.304;6.866;2022-12-29T01:59:00;1.35;;;0.30;;
25127;SDS011;13107;51.304;6.866;2022-12-29T02:03:06;0.28;;;0.20;;
25127;SDS011;13107;51.304;6.866;2022-12-29T02:07:17;0.82;;;0.40;;
25127;SDS011;13107;51.304;6.866;2022-12-29T02:11:21;1.05;;;0.25;;
25127;SDS011;13107;51.304;6.866;2022-12-29T02:15:48;0.43;;;0.25;;
25127;SDS011;13107;51.304;6.866;2022-12-29T02:41:42;0.70;;;0.28;;
25127;SDS011;13107;51.304;6.866;2022-12-29T02:46:15;2.62;;;0.50;;
25127;SDS011;13107;51.304;6.866;2022-12-29T02:50:25;1.87;;;0.40;;
25127;SDS011;13107;51.304;6.866;2022-12-29T02:54:32;1.50;;;0.30;;
25127;SDS011;13107;51.304;6.866;2022-12-29T02:58:43;0.88;;;0.35;;
25127;SDS011;13107;51.304;6.866;2022-12-29T03:02:48;1.48;;;0.40;;
25127;SDS011;13107;51.304;6.866;2022-12-29T03:07:01;2.55;;;0.57;;
25127;SDS011;13107;51.304;6.866;2022-12-29T03:11:21;2.12;;;0.50;;
25127;SDS011;13107;51.304;6.866;2022-12-29T03:15:50;1.02;;;0.20;;
25127;SDS011;13107;51.304;6.866;2022-12-29T03:20:14;1.70;;;0.55;;
25127;SDS011;13107;51.304;6.866;2022-12-29T03:24:29;1.20;;;0.37;;
25127;SDS011;13107;51.304;6.866;2022-12-29T03:28:36;2.45;;;0.30;;
25127;SDS011;13107;51.304;6.866;2022-12-29T03:32:42;1.27;;;0.37;;
25127;SDS011;13107;51.304;6.866;2022-12-29T03:36:57;0.85;;;0.40;;
25127;SDS011;13107;51.304;6.866;2022-12-29T03:41:14;1.10;;;0.20;;
25127;SDS011;13107;51.304;6.866;2022-12-29T03:45:19;1.85;;;0.47;;
25127;SDS011;13107;51.304;6.866;2022-12-29T03:49:21;2.15;;;0.30;;
25127;SDS011;13107;51.304;6.866;2022-12-29T03:53:23;3.35;;;0.45;;
25127;SDS011;13107;51.304;6.866;2022-12-29T03:57:25;1.60;;;0.30;;
25127;SDS011;13107;51.304;6.866;2022-12-29T04:01:26;1.20;;;0.30;;
25127;SDS011;13107;51.304;6.866;2022-12-29T04:05:28;0.50;;;0.30;;
25127;SDS011;13107;51.304;6.866;2022-12-29T04:09:30;1.12;;;0.20;;
25127;SDS011;13107;51.304;6.866;2022-12-29T04:13:32;1.20;;;0.40;;
25127;SDS011;13107;51.304;6.866;2022-12-29T04:17:34;0.57;;;0.30;;
25127;SDS011;13107;51.304;6.866;2022-12-29T04:21:35;1.12;;;0.30;;
25127;SDS011;13107;51.304;6.866;2022-12-29T04:25:37;1.35;;;0.40;;
25127;SDS011;13107;51.304;6.866;2022-12-29T04:29:39;1.33;;;0.25;;
25127;SDS011;13107;51.304;6.866;2022-12-29T04:33:40;1.23;;;0.30;;
25127;SDS011;13107;51.304;6.866;2022-12-29T04:37:42;1.12;;;0.35;;
25127;SDS011;13107;51.304;6.866;2022-12-29T04:41:44;2.47;;;0.30;;
25127;SDS011;13107;51.304;6.866;2022-12-29T04:45:46;2.62;;;0.28;;
25127;SDS011;13107;51.304;6.866;2022-12-29T04:49:48;1.27;;;0.50;;
25127;SDS011;13107;51.304;6.866;2022-12-29T04:53:50;3.00;;;0.43;;
25127;SDS011;13107;51.304;6.866;2022-12-29T04:57:52;0.85;;;0.37;;
25127;SDS011;13107;51.304;6.866;2022-12-29T05:01:53;2.87;;;0.40;;
25127;SDS011;13107;51.304;6.866;2022-12-29T05:05:55;2.83;;;0.40;;
25127;SDS011;13107;51.304;6.866;2022-12-29T05:09:58;4.00;;;0.50;;
25127;SDS011;13107;51.304;6.866;2022-12-29T05:13:59;1.42;;;0.50;;
25127;SDS011;13107;51.304;6.866;2022-12-29T05:18:01;1.27;;;0.30;;
25127;SDS011;13107;51.304;6.866;2022-12-29T05:22:03;0.73;;;0.30;;
25127;SDS011;13107;51.304;6.866;2022-12-29T05:26:05;2.42;;;0.57;;
25127;SDS011;13107;51.304;6.866;2022-12-29T05:30:08;2.25;;;0.30;;
25127;SDS011;13107;51.304;6.866;2022-12-29T05:34:10;2.37;;;0.45;;
25127;SDS011;13107;51.304;6.866;2022-12-29T05:38:12;1.67;;;0.35;;
25127;SDS011;13107;51.304;6.866;2022-12-29T05:42:14;3.62;;;0.57;;
25127;SDS011;13107;51.304;6.866;2022-12-29T05:46:17;1.33;;;0.40;;
25127;SDS011;13107;51.304;6.866;2022-12-29T05:50:19;0.77;;;0.50;;
25127;SDS011;13107;51.304;6.866;2022-12-29T05:54:20;2.40;;;0.32;;
25127;SDS011;13107;51.304;6.866;2022-12-29T05:58:22;2.25;;;0.40;;
25127;SDS011;13107;51.304;6.866;2022-12-29T06:02:24;2.22;;;0.50;;
25127;SDS011;13107;51.304;6.866;2022-12-29T06:06:26;1.77;;;0.50;;
25127;SDS011;13107;51.304;6.866;2022-12-29T06:10:27;4.15;;;0.75;;
25127;SDS011;13107;51.304;6.866;2022-12-29T06:14:29;8.27;;;0.70;;
25127;SDS011;13107;51.304;6.866;2022-12-29T06:18:31;1.45;;;0.40;;
25127;SDS011;13107;51.304;6.866;2022-12-29T06:22:32;3.25;;;0.50;;
25127;SDS011;13107;51.304;6.866;2022-12-29T06:26:34;3.50;;;0.60;;
25127;SDS011;13107;51.304;6.866;2022-12-29T06:30:36;2.00;;;0.40;;
25127;SDS011;13107;51.304;6.866;2022-12-29T06:34:37;5.82;;;0.70;;
25127;SDS011;13107;51.304;6.866;2022-12-29T06:38:39;2.80;;;0.60;;
25127;SDS011;13107;51.304;6.866;2022-12-29T06:42:41;2.20;;;0.45;;
25127;SDS011;13107;51.304;6.866;2022-12-29T06:46:42;2.33;;;0.52;;
25127;SDS011;13107;51.304;6.866;2022-12-29T06:50:44;4.62;;;0.68;;
25127;SDS011;13107;51.304;6.866;2022-12-29T06:54:46;3.12;;;0.50;;
25127;SDS011;13107;51.304;6.866;2022-12-29T06:58:47;4.20;;;0.65;;
25127;SDS011;13107;51.304;6.866;2022-12-29T07:02:49;3.12;;;0.50;;
25127;SDS011;13107;51.304;6.866;2022-12-29T07:06:51;2.17;;;0.30;;
25127;SDS011;13107;51.304;6.866;2022-12-29T07:10:53;4.80;;;0.50;;
25127;SDS011;13107;51.304;6.866;2022-12-29T07:14:54;3.15;;;0.43;;
25127;SDS011;13107;51.304;6.866;2022-12-29T07:18:56;3.90;;;0.70;;
25127;SDS011;13107;51.304;6.866;2022-12-29T07:23:00;2.80;;;0.57;;
25127;SDS011;13107;51.304;6.866;2022-12-29T07:27:01;7.07;;;0.65;;
25127;SDS011;13107;51.304;6.866;2022-12-29T07:31:04;5.55;;;0.50;;
25127;SDS011;13107;51.304;6.866;2022-12-29T07:35:06;6.68;;;0.70;;
25127;SDS011;13107;51.304;6.866;2022-12-29T07:39:08;5.78;;;0.70;;
25127;SDS011;13107;51.304;6.866;2022-12-29T07:43:10;5.55;;;0.65;;
25127;SDS011;13107;51.304;6.866;2022-12-29T07:47:12;5.70;;;0.77;;
25127;SDS011;13107;51.304;6.866;2022-12-29T07:51:14;3.87;;;0.68;;
25127;SDS011;13107;51.304;6.866;2022-12-29T07:55:15;3.30;;;0.60;;
25127;SDS011;13107;51.304;6.866;2022-12-29T07:59:17;2.87;;;0.60;;
25127;SDS011;13107;51.304;6.866;2022-12-29T08:03:19;6.55;;;0.52;;
25127;SDS011;13107;51.304;6.866;2022-12-29T08:07:21;2.53;;;0.65;;
25127;SDS011;13107;51.304;6.866;2022-12-29T08:11:23;7.65;;;0.62;;
25127;SDS011;13107;51.304;6.866;2022-12-29T08:15:24;2.05;;;0.60;;
25127;SDS011;13107;51.304;6.866;2022-12-29T08:19:32;5.85;;;1.08;;
25127;SDS011;13107;51.304;6.866;2022-12-29T08:23:34;5.50;;;0.85;;
25127;SDS011;13107;51.304;6.866;2022-12-29T08:27:36;9.82;;;1.15;;
25127;SDS011;13107;51.304;6.866;2022-12-29T08:31:37;4.47;;;1.25;;
25127;SDS011;13107;51.304;6.866;2022-12-29T08:35:39;3.00;;;0.65;;
25127;SDS011;13107;51.304;6.866;2022-12-29T08:39:41;5.25;;;0.88;;
25127;SDS011;13107;51.304;6.866;2022-12-29T08:43:45;6.15;;;1.30;;
25127;SDS011;13107;51.304;6.866;2022-12-29T08:47:48;11.02;;;0.95;;
25127;SDS011;13107;51.304;6.866;2022-12-29T08:51:50;5.75;;;0.93;;
25127;SDS011;13107;51.304;6.866;2022-12-29T08:55:56;7.25;;;1.17;;
25127;SDS011;13107;51.304;6.866;2022-12-29T09:00:05;7.22;;;0.85;;
25127;SDS011;13107;51.304;6.866;2022-12-29T09:04:08;12.18;;;2.70;;
25127;SDS011;13107;51.304;6.866;2022-12-29T09:08:17;5.57;;;1.12;;
25127;SDS011;13107;51.304;6.866;2022-12-29T09:12:26;4.93;;;0.70;;
25127;SDS011;13107;51.304;6.866;2022-12-29T09:16:36;8.43;;;1.20;;
25127;SDS011;13107;51.304;6.866;2022-12-29T09:20:38;4.65;;;0.80;;
25127;SDS011;13107;51.304;6.866;2022-12-29T09:24:40;4.87;;;0.90;;
25127;SDS011;13107;51.304;6.866;2022-12-29T09:28:42;2.95;;;0.90;;
25127;SDS011;13107;51.304;6.866;2022-12-29T09:32:45;5.68;;;0.82;;
25127;SDS011;13107;51.304;6.866;2022-12-29T09:36:55;4.75;;;0.95;;
25127;SDS011;13107;51.304;6.866;2022-12-29T09:45:16;7.60;;;0.90;;
25127;SDS011;13107;51.304;6.866;2022-12-29T09:49:25;4.00;;;0.90;;
25127;SDS011;13107;51.304;6.866;2022-12-29T09:53:43;5.90;;;0.98;;
25127;SDS011;13107;51.304;6.866;2022-12-29T09:58:03;4.35;;;0.80;;
25127;SDS011;13107;51.304;6.866;2022-12-29T10:20:18;8.05;;;1.40;;
25127;SDS011;13107;51.304;6.866;2022-12-29T10:24:32;6.60;;;0.90;;
25127;SDS011;13107;51.304;6.866;2022-12-29T10:28:40;6.80;;;1.17;;
25127;SDS011;13107;51.304;6.866;2022-12-29T10:32:58;3.72;;;0.80;;
25127;SDS011;13107;51.304;6.866;2022-12-29T10:41:41;9.82;;;1.05;;
25127;SDS011;13107;51.304;6.866;2022-12-29T10:45:49;6.90;;;0.95;;
25127;SDS011;13107;51.304;6.866;2022-12-29T10:49:54;4.90;;;0.80;;
25127;SDS011;13107;51.304;6.866;2022-12-29T10:54:02;7.32;;;1.00;;
25127;SDS011;13107;51.304;6.866;2022-12-29T10:58:09;10.02;;;1.00;;
25127;SDS011;13107;51.304;6.866;2022-12-29T11:06:51;7.97;;;0.85;;
25127;SDS011;13107;51.304;6.866;2022-12-29T11:11:00;7.18;;;1.25;;
25127;SDS011;13107;51.304;6.866;2022-12-29T11:19:19;6.40;;;0.90;;
25127;SDS011;13107;51.304;6.866;2022-12-29T11:27:32;6.68;;;1.05;;
25127;SDS011;13107;51.304;6.866;2022-12-29T11:31:44;4.25;;;0.85;;
25127;SDS011;13107;51.304;6.866;2022-12-29T11:35:47;9.68;;;1.20;;
25127;SDS011;13107;51.304;6.866;2022-12-29T11:39:50;6.45;;;1.17;;
25127;SDS011;13107;51.304;6.866;2022-12-29T11:44:06;7.32;;;1.17;;
25127;SDS011;13107;51.304;6.866;2022-12-29T11:48:15;3.50;;;0.80;;
25127;SDS011;13107;51.304;6.866;2022-12-29T11:52:23;5.80;;;1.00;;
25127;SDS011;13107;51.304;6.866;2022-12-29T11:56:33;6.90;;;0.90;;
25127;SDS011;13107;51.304;6.866;2022-12-29T12:00:41;7.97;;;1.00;;
25127;SDS011;13107;51.304;6.866;2022-12-29T12:04:45;7.65;;;1.05;;
25127;SDS011;13107;51.304;6.866;2022-12-29T12:17:19;9.32;;;1.00;;
25127;SDS011;13107;51.304;6.866;2022-12-29T12:21:34;8.13;;;1.40;;
25127;SDS011;13107;51.304;6.866;2022-12-29T12:25:55;9.75;;;1.42;;
25127;SDS011;13107;51.304;6.866;2022-12-29T12:34:16;6.05;;;1.02;;
25127;SDS011;13107;51.304;6.866;2022-12-29T13:22:41;5.28;;;0.90;;
25127;SDS011;13107;51.304;6.866;2022-12-29T13:31:50;5.78;;;1.00;;
25127;SDS011;13107;51.304;6.866;2022-12-29T13:40:32;5.37;;;1.17;;
25127;SDS011;13107;51.304;6.866;2022-12-29T13:44:38;4.25;;;0.80;;
25127;SDS011;13107;51.304;6.866;2022-12-29T13:48:47;7.25;;;0.90;;
25127;SDS011;13107;51.304;6.866;2022-12-29T13:53:05;7.45;;;1.23;;
25127;SDS011;13107;51.304;6.866;2022-12-29T14:10:27;5.70;;;1.25;;
25127;SDS011;13107;51.304;6.866;2022-12-29T14:14:36;6.78;;;0.80;;
25127;SDS011;13107;51.304;6.866;2022-12-29T14:18:42;7.75;;;1.20;;
25127;SDS011;13107;51.304;6.866;2022-12-29T14:22:58;6.62;;;1.15;;
25127;SDS011;13107;51.304;6.866;2022-12-29T14:35:37;4.35;;;1.17;;
25127;SDS011;13107;51.304;6.866;2022-12-29T14:39:41;8.20;;;1.02;;
25127;SDS011;13107;51.304;6.866;2022-12-29T14:43:56;8.23;;;1.17;;
25127;SDS011;13107;51.304;6.866;2022-12-29T14:48:33;8.07;;;1.08;;
25127;SDS011;13107;51.304;6.866;2022-12-29T14:57:05;7.62;;;1.00;;
25127;SDS011;13107;51.304;6.866;2022-12-29T15:01:19;8.73;;;1.10;;
25127;SDS011;13107;51.304;6.866;2022-12-29T15:05:46;4.40;;;1.12;;
25127;SDS011;13107;51.304;6.866;2022-12-29T15:09:58;8.35;;;1.17;;
25127;SDS011;13107;51.304;6.866;2022-12-29T15:14:28;8.57;;;1.20;;
25127;SDS011;13107;51.304;6.866;2022-12-29T15:18:36;6.62;;;1.17;;
25127;SDS011;13107;51.304;6.866;2022-12-29T15:22:52;6.37;;;1.10;;
25127;SDS011;13107;51.304;6.866;2022-12-29T15:27:05;4.62;;;1.02;;
25127;SDS011;13107;51.304;6.866;2022-12-29T15:31:14;8.15;;;1.37;;
25127;SDS011;13107;51.304;6.866;2022-12-29T15:35:36;6.68;;;1.00;;
25127;SDS011;13107;51.304;6.866;2022-12-29T15:39:38;4.50;;;0.80;;
25127;SDS011;13107;51.304;6.866;2022-12-29T15:47:47;7.47;;;1.48;;
25127;SDS011;13107;51.304;6.866;2022-12-29T15:51:51;9.10;;;1.35;;
25127;SDS011;13107;51.304;6.866;2022-12-29T15:55:53;7.22;;;0.95;;
25127;SDS011;13107;51.304;6.866;2022-12-29T16:00:04;6.97;;;1.02;;
25127;SDS011;13107;51.304;6.866;2022-12-29T16:04:23;8.93;;;1.30;;
25127;SDS011;13107;51.304;6.866;2022-12-29T16:08:39;7.60;;;1.02;;
25127;SDS011;13107;51.304;6.866;2022-12-29T16:12:41;7.20;;;1.35;;
25127;SDS011;13107;51.304;6.866;2022-12-29T16:16:43;5.65;;;1.60;;
25127;SDS011;13107;51.304;6.866;2022-12-29T16:20:47;5.97;;;0.80;;
25127;SDS011;13107;51.304;6.866;2022-12-29T16:24:49;7.18;;;0.90;;
25127;SDS011;13107;51.304;6.866;2022-12-29T16:28:53;6.03;;;1.00;;
25127;SDS011;13107;51.304;6.866;2022-12-29T16:32:58;7.28;;;1.50;;
25127;SDS011;13107;51.304;6.866;2022-12-29T16:37:02;6.75;;;1.55;;
25127;SDS011;13107;51.304;6.866;2022-12-29T16:41:04;7.80;;;1.67;;
25127;SDS011;13107;51.304;6.866;2022-12-29T16:49:51;8.90;;;1.20;;
25127;SDS011;13107;51.304;6.866;2022-12-29T16:53:54;7.22;;;1.37;;
25127;SDS011;13107;51.304;6.866;2022-12-29T16:57:56;8.57;;;1.50;;
25127;SDS011;13107;51.304;6.866;2022-12-29T17:02:01;10.00;;;3.15;;
25127;SDS011;13107;51.304;6.866;2022-12-29T17:06:15;10.68;;;1.55;;
25127;SDS011;13107;51.304;6.866;2022-12-29T17:10:18;15.50;;;1.83;;
25127;SDS011;13107;51.304;6.866;2022-12-29T17:19:00;8.73;;;1.52;;
25127;SDS011;13107;51.304;6.866;2022-12-29T17:23:05;8.77;;;1.45;;
25127;SDS011;13107;51.304;6.866;2022-12-29T17:27:35;9.10;;;1.87;;
25127;SDS011;13107;51.304;6.866;2022-12-29T17:31:39;15.48;;;1.67;;
25127;SDS011;13107;51.304;6.866;2022-12-29T17:35:41;12.37;;;1.65;;
25127;SDS011;13107;51.304;6.866;2022-12-29T17:39:43;15.00;;;2.17;;
25127;SDS011;13107;51.304;6.866;2022-12-29T17:43:45;10.80;;;2.20;;
25127;SDS011;13107;51.304;6.866;2022-12-29T17:47:46;7.05;;;1.30;;
25127;SDS011;13107;51.304;6.866;2022-12-29T17:51:48;7.97;;;1.85;;
25127;SDS011;13107;51.304;6.866;2022-12-29T17:55:50;4.03;;;0.82;;
25127;SDS011;13107;51.304;6.866;2022-12-29T17:59:52;4.97;;;0.77;;
25127;SDS011;13107;51.304;6.866;2022-12-29T18:03:54;5.07;;;1.00;;
25127;SDS011;13107;51.304;6.866;2022-12-29T18:07:56;4.62;;;0.93;;
25127;SDS011;13107;51.304;6.866;2022-12-29T18:11:59;5.47;;;0.98;;
25127;SDS011;13107;51.304;6.866;2022-12-29T18:16:01;6.85;;;1.27;;
25127;SDS011;13107;51.304;6.866;2022-12-29T18:20:03;4.80;;;1.75;;
25127;SDS011;13107;51.304;6.866;2022-12-29T18:24:05;4.82;;;1.10;;
25127;SDS011;13107;51.304;6.866;2022-12-29T18:28:10;4.95;;;1.30;;
25127;SDS011;13107;51.304;6.866;2022-12-29T18:32:12;7.95;;;1.40;;
25127;SDS011;13107;51.304;6.866;2022-12-29T18:36:15;8.80;;;1.25;;
25127;SDS011;13107;51.304;6.866;2022-12-29T18:40:17;6.10;;;1.90;;
25127;SDS011;13107;51.304;6.866;2022-12-29T18:44:19;9.02;;;1.42;;
25127;SDS011;13107;51.304;6.866;2022-12-29T18:48:21;14.10;;;2.22;;
25127;SDS011;13107;51.304;6.866;2022-12-29T18:52:23;10.82;;;2.42;;
25127;SDS011;13107;51.304;6.866;2022-12-29T18:56:25;10.02;;;1.65;;
25127;SDS011;13107;51.304;6.866;2022-12-29T19:00:27;12.23;;;1.98;;
25127;SDS011;13107;51.304;6.866;2022-12-29T19:04:29;12.30;;;2.17;;
25127;SDS011;13107;51.304;6.866;2022-12-29T19:08:30;13.45;;;2.22;;
25127;SDS011;13107;51.304;6.866;2022-12-29T19:12:32;15.48;;;2.45;;
25127;SDS011;13107;51.304;6.866;2022-12-29T19:16:34;14.77;;;2.45;;
25127;SDS011;13107;51.304;6.866;2022-12-29T19:20:40;11.55;;;2.15;;
25127;SDS011;13107;51.304;6.866;2022-12-29T19:24:43;10.90;;;2.40;;
25127;SDS011;13107;51.304;6.866;2022-12-29T19:28:44;8.95;;;1.65;;
25127;SDS011;13107;51.304;6.866;2022-12-29T19:32:47;9.95;;;2.17;;
25127;SDS011;13107;51.304;6.866;2022-12-29T19:36:50;11.07;;;1.73;;
25127;SDS011;13107;51.304;6.866;2022-12-29T19:40:52;10.38;;;1.73;;
25127;SDS011;13107;51.304;6.866;2022-12-29T19:44:54;11.55;;;2.05;;
25127;SDS011;13107;51.304;6.866;2022-12-29T19:48:55;9.60;;;1.87;;
25127;SDS011;13107;51.304;6.866;2022-12-29T19:53:00;13.77;;;1.95;;
25127;SDS011;13107;51.304;6.866;2022-12-29T19:57:05;10.38;;;1.95;;
25127;SDS011;13107;51.304;6.866;2022-12-29T20:01:12;10.52;;;1.60;;
25127;SDS011;13107;51.304;6.866;2022-12-29T20:05:16;10.75;;;2.00;;
25127;SDS011;13107;51.304;6.866;2022-12-29T20:09:19;7.03;;;1.70;;
25127;SDS011;13107;51.304;6.866;2022-12-29T20:13:20;10.30;;;2.12;;
25127;SDS011;13107;51.304;6.866;2022-12-29T20:17:22;11.25;;;1.20;;
25127;SDS011;13107;51.304;6.866;2022-12-29T20:21:44;10.82;;;1.50;;
25127;SDS011;13107;51.304;6.866;2022-12-29T20:25:52;9.25;;;1.75;;
25127;SDS011;13107;51.304;6.866;2022-12-29T20:29:55;11.57;;;1.83;;
25127;SDS011;13107;51.304;6.866;2022-12-29T20:33:56;9.20;;;1.65;;
25127;SDS011;13107;51.304;6.866;2022-12-29T20:37:58;6.32;;;1.45;;
25127;SDS011;13107;51.304;6.866;2022-12-29T20:42:00;7.75;;;1.50;;
25127;SDS011;13107;51.304;6.866;2022-12-29T20:46:02;9.95;;;2.00;;
25127;SDS011;13107;51.304;6.866;2022-12-29T20:50:03;9.70;;;1.85;;
25127;SDS011;13107;51.304;6.866;2022-12-29T20:54:05;10.23;;;1.70;;
25127;SDS011;13107;51.304;6.866;2022-12-29T20:58:07;12.40;;;1.80;;
25127;SDS011;13107;51.304;6.866;2022-12-29T21:02:25;9.65;;;1.98;;
25127;SDS011;13107;51.304;6.866;2022-12-29T21:06:27;15.50;;;2.70;;
25127;SDS011;13107;51.304;6.866;2022-12-29T21:10:29;10.35;;;1.80;;
25127;SDS011;13107;51.304;6.866;2022-12-29T21:14:31;10.85;;;1.90;;
25127;SDS011;13107;51.304;6.866;2022-12-29T21:18:32;10.85;;;1.65;;
25127;SDS011;13107;51.304;6.866;2022-12-29T21:22:34;13.45;;;1.80;;
25127;SDS011;13107;51.304;6.866;2022-12-29T21:26:36;13.62;;;2.50;;
25127;SDS011;13107;51.304;6.866;2022-12-29T21:30:38;12.35;;;2.28;;
25127;SDS011;13107;51.304;6.866;2022-12-29T21:34:41;11.93;;;1.98;;
25127;SDS011;13107;51.304;6.866;2022-12-29T21:38:43;12.35;;;1.95;;
25127;SDS011;13107;51.304;6.866;2022-12-29T21:42:45;9.93;;;1.62;;
25127;SDS011;13107;51.304;6.866;2022-12-29T21:46:47;13.90;;;2.17;;
25127;SDS011;13107;51.304;6.866;2022-12-29T21:50:49;14.38;;;2.42;;
25127;SDS011;13107;51.304;6.866;2022-12-29T21:55:17;9.90;;;1.98;;
25127;SDS011;13107;51.304;6.866;2022-12-29T21:59:19;14.50;;;2.10;;
25127;SDS011;13107;51.304;6.866;2022-12-29T22:03:39;10.07;;;1.73;;
25127;SDS011;13107;51.304;6.866;2022-12-29T22:08:00;10.63;;;1.77;;
25127;SDS011;13107;51.304;6.866;2022-12-29T22:12:21;15.88;;;2.40;;
25127;SDS011;13107;51.304;6.866;2022-12-29T22:16:41;13.98;;;2.33;;
25127;SDS011;13107;51.304;6.866;2022-12-29T22:20:43;12.43;;;2.15;;
25127;SDS011;13107;51.304;6.866;2022-12-29T22:24:45;8.73;;;2.05;;
25127;SDS011;13107;51.304;6.866;2022-12-29T22:28:46;7.35;;;1.58;;
25127;SDS011;13107;51.304;6.866;2022-12-29T22:32:48;14.48;;;1.62;;
25127;SDS011;13107;51.304;6.866;2022-12-29T22:36:50;8.45;;;1.60;;
25127;SDS011;13107;51.304;6.866;2022-12-29T22:40:56;11.85;;;1.90;;
25127;SDS011;13107;51.304;6.866;2022-12-29T22:44:58;13.98;;;2.10;;
25127;SDS011;13107;51.304;6.866;2022-12-29T22:49:00;11.10;;;1.55;;
25127;SDS011;13107;51.304;6.866;2022-12-29T22:53:02;11.93;;;2.33;;
25127;SDS011;13107;51.304;6.866;2022-12-29T22:57:03;9.73;;;2.40;;
25127;SDS011;13107;51.304;6.866;2022-12-29T23:01:05;10.00;;;1.98;;
25127;SDS011;13107;51.304;6.866;2022-12-29T23:05:07;10.50;;;1.67;;
25127;SDS011;13107;51.304;6.866;2022-12-29T23:09:13;8.77;;;1.62;;
25127;SDS011;13107;51.304;6.866;2022-12-29T23:13:17;15.65;;;2.28;;
25127;SDS011;13107;51.304;6.866;2022-12-29T23:17:18;13.18;;;1.90;;
25127;SDS011;13107;51.304;6.866;2022-12-29T23:21:20;13.65;;;2.05;;
25127;SDS011;13107;51.304;6.866;2022-12-29T23:25:22;14.27;;;1.98;;
25127;SDS011;13107;51.304;6.866;2022-12-29T23:29:23;10.85;;;1.90;;
25127;SDS011;13107;51.304;6.866;2022-12-29T23:33:25;14.80;;;2.22;;
25127;SDS011;13107;51.304;6.866;2022-12-29T23:37:27;15.13;;;1.87;;
25127;SDS011;13107;51.304;6.866;2022-12-29T23:41:29;12.43;;;2.62;;
25127;SDS011;13107;51.304;6.866;2022-12-29T23:45:34;12.55;;;1.70;;
25127;SDS011;13107;51.304;6.866;2022-12-29T23:49:36;19.23;;;2.20;;
25127;SDS011;13107;51.304;6.866;2022-12-29T23:53:38;10.52;;;1.92;;
25127;SDS011;13107;51.304;6.866;2022-12-29T23:57:41;13.27;;;1.83;;
